sensor_id;sensor_type;location;lat;lon;timestamp;temperature;humidity
19864;DHT22;10094;48.820;9.226;2022-07-23T00:06:16;26.60;88.50
19864;DHT22;10094;48.820;9.226;2022-07-23T00:12:59;26.40;88.60
19864;DHT22;10094;48.820;9.226;2022-07-23T00:19:43;26.30;89.40
19864;DHT22;10094;48.820;9.226;2022-07-23T00:26:43;26.10;89.70
19864;DHT22;10094;48.820;9.226;2022-07-23T00:33:26;26.00;89.80
19864;DHT22;10094;48.820;9.226;2022-07-23T00:40:09;25.90;90.00
19864;DHT22;10094;48.820;9.226;2022-07-23T00:46:57;25.80;90.10
19864;DHT22;10094;48.820;9.226;2022-07-23T00:53:40;25.70;90.50
19864;DHT22;10094;48.820;9.226;2022-07-23T01:00:23;25.40;91.00
19864;DHT22;10094;48.820;9.226;2022-07-23T01:07:42;25.30;91.40
19864;DHT22;10094;48.820;9.226;2022-07-23T01:14:26;25.10;91.90
19864;DHT22;10094;48.820;9.226;2022-07-23T01:21:11;24.90;92.60
19864;DHT22;10094;48.820;9.226;2022-07-23T01:27:58;24.60;93.10
19864;DHT22;10094;48.820;9.226;2022-07-23T01:34:40;24.50;93.30
19864;DHT22;10094;48.820;9.226;2022-07-23T01:41:23;24.40;93.30
19864;DHT22;10094;48.820;9.226;2022-07-23T01:48:08;24.50;93.20
19864;DHT22;10094;48.820;9.226;2022-07-23T01:54:57;24.50;93.00
19864;DHT22;10094;48.820;9.226;2022-07-23T02:01:39;24.50;93.20
19864;DHT22;10094;48.820;9.226;2022-07-23T02:08:22;24.50;93.10
19864;DHT22;10094;48.820;9.226;2022-07-23T02:15:05;24.40;93.50
19864;DHT22;10094;48.820;9.226;2022-07-23T02:21:51;24.30;93.40
19864;DHT22;10094;48.820;9.226;2022-07-23T02:28:34;24.30;93.50
19864;DHT22;10094;48.820;9.226;2022-07-23T02:35:17;24.20;93.80
19864;DHT22;10094;48.820;9.226;2022-07-23T02:41:59;24.10;94.20
19864;DHT22;10094;48.820;9.226;2022-07-23T02:48:45;24.00;94.30
19864;DHT22;10094;48.820;9.226;2022-07-23T02:55:28;23.90;94.60
19864;DHT22;10094;48.820;9.226;2022-07-23T03:02:14;23.90;94.90
19864;DHT22;10094;48.820;9.226;2022-07-23T03:08:56;23.80;94.90
19864;DHT22;10094;48.820;9.226;2022-07-23T03:15:39;23.80;94.90
19864;DHT22;10094;48.820;9.226;2022-07-23T03:22:22;23.80;94.90
19864;DHT22;10094;48.820;9.226;2022-07-23T03:29:04;23.70;95.10
19864;DHT22;10094;48.820;9.226;2022-07-23T03:35:47;23.60;95.50
19864;DHT22;10094;48.820;9.226;2022-07-23T03:42:35;23.50;95.70
19864;DHT22;10094;48.820;9.226;2022-07-23T03:49:19;23.50;95.80
19864;DHT22;10094;48.820;9.226;2022-07-23T03:56:04;23.50;95.90
19864;DHT22;10094;48.820;9.226;2022-07-23T04:02:46;23.50;96.10
19864;DHT22;10094;48.820;9.226;2022-07-23T04:09:29;23.50;96.40
19864;DHT22;10094;48.820;9.226;2022-07-23T04:16:11;23.50;96.70
19864;DHT22;10094;48.820;9.226;2022-07-23T04:22:54;23.50;97.40
19864;DHT22;10094;48.820;9.226;2022-07-23T04:29:37;23.70;96.80
19864;DHT22;10094;48.820;9.226;2022-07-23T04:36:19;23.80;96.10
19864;DHT22;10094;48.820;9.226;2022-07-23T04:43:01;24.00;95.40
19864;DHT22;10094;48.820;9.226;2022-07-23T04:49:47;23.80;95.40
19864;DHT22;10094;48.820;9.226;2022-07-23T04:56:30;23.90;95.30
19864;DHT22;10094;48.820;9.226;2022-07-23T05:03:13;24.10;94.80
19864;DHT22;10094;48.820;9.226;2022-07-23T05:09:55;24.50;94.60
19864;DHT22;10094;48.820;9.226;2022-07-23T05:16:38;25.40;94.20
19864;DHT22;10094;48.820;9.226;2022-07-23T05:23:26;26.10;93.40
19864;DHT22;10094;48.820;9.226;2022-07-23T05:30:09;26.70;92.40
19864;DHT22;10094;48.820;9.226;2022-07-23T05:36:54;28.80;90.60
19864;DHT22;10094;48.820;9.226;2022-07-23T05:43:36;30.80;88.20
19864;DHT22;10094;48.820;9.226;2022-07-23T05:50:24;29.60;88.20
19864;DHT22;10094;48.820;9.226;2022-07-23T05:58:02;27.60;90.60
19864;DHT22;10094;48.820;9.226;2022-07-23T06:04:45;27.40;91.20
19864;DHT22;10094;48.820;9.226;2022-07-23T06:11:37;27.30;90.90
19864;DHT22;10094;48.820;9.226;2022-07-23T06:18:20;27.00;90.90
19864;DHT22;10094;48.820;9.226;2022-07-23T06:25:03;26.30;91.40
19864;DHT22;10094;48.820;9.226;2022-07-23T06:31:53;25.80;92.10
19864;DHT22;10094;48.820;9.226;2022-07-23T06:38:36;27.60;90.70
19864;DHT22;10094;48.820;9.226;2022-07-23T06:45:18;27.30;90.50
19864;DHT22;10094;48.820;9.226;2022-07-23T06:52:02;26.60;90.60
19864;DHT22;10094;48.820;9.226;2022-07-23T06:58:44;26.60;90.70
19864;DHT22;10094;48.820;9.226;2022-07-23T07:05:27;27.10;90.40
19864;DHT22;10094;48.820;9.226;2022-07-23T07:12:09;25.90;91.50
19864;DHT22;10094;48.820;9.226;2022-07-23T07:18:52;25.30;92.10
19864;DHT22;10094;48.820;9.226;2022-07-23T07:25:34;24.90;93.00
19864;DHT22;10094;48.820;9.226;2022-07-23T07:32:17;24.80;93.90
19864;DHT22;10094;48.820;9.226;2022-07-23T07:39:19;23.90;94.90
19864;DHT22;10094;48.820;9.226;2022-07-23T07:46:03;24.20;95.10
19864;DHT22;10094;48.820;9.226;2022-07-23T07:52:46;24.20;96.10
19864;DHT22;10094;48.820;9.226;2022-07-23T07:59:29;24.90;95.80
19864;DHT22;10094;48.820;9.226;2022-07-23T08:06:15;25.50;95.00
19864;DHT22;10094;48.820;9.226;2022-07-23T08:12:58;25.10;95.20
19864;DHT22;10094;48.820;9.226;2022-07-23T08:19:42;25.10;95.70
19864;DHT22;10094;48.820;9.226;2022-07-23T08:26:25;28.40;93.30
19864;DHT22;10094;48.820;9.226;2022-07-23T08:33:10;29.70;90.00
19864;DHT22;10094;48.820;9.226;2022-07-23T08:40:15;27.90;91.40
19864;DHT22;10094;48.820;9.226;2022-07-23T08:46:57;27.00;92.00
19864;DHT22;10094;48.820;9.226;2022-07-23T08:53:40;27.00;92.80
19864;DHT22;10094;48.820;9.226;2022-07-23T09:00:23;31.60;89.00
19864;DHT22;10094;48.820;9.226;2022-07-23T09:08:11;34.30;81.90
19864;DHT22;10094;48.820;9.226;2022-07-23T09:14:54;36.80;76.70
19864;DHT22;10094;48.820;9.226;2022-07-23T09:21:38;38.30;72.50
19864;DHT22;10094;48.820;9.226;2022-07-23T09:28:20;37.60;70.90
19864;DHT22;10094;48.820;9.226;2022-07-23T09:35:03;38.60;69.90
19864;DHT22;10094;48.820;9.226;2022-07-23T09:41:47;38.60;69.00
19864;DHT22;10094;48.820;9.226;2022-07-23T09:48:29;36.10;69.70
19864;DHT22;10094;48.820;9.226;2022-07-23T09:55:13;37.40;68.60
19864;DHT22;10094;48.820;9.226;2022-07-23T10:01:56;38.10;68.10
19864;DHT22;10094;48.820;9.226;2022-07-23T10:08:41;38.90;67.50
19864;DHT22;10094;48.820;9.226;2022-07-23T10:15:47;37.60;67.00
19864;DHT22;10094;48.820;9.226;2022-07-23T10:22:42;36.40;68.20
19864;DHT22;10094;48.820;9.226;2022-07-23T10:29:52;36.90;67.70
19864;DHT22;10094;48.820;9.226;2022-07-23T10:36:58;36.40;67.20
19864;DHT22;10094;48.820;9.226;2022-07-23T10:44:06;35.90;67.90
19864;DHT22;10094;48.820;9.226;2022-07-23T10:51:38;36.70;67.60
19864;DHT22;10094;48.820;9.226;2022-07-23T10:58:47;36.90;67.20
19864;DHT22;10094;48.820;9.226;2022-07-23T11:05:44;34.50;68.90
19864;DHT22;10094;48.820;9.226;2022-07-23T11:19:12;32.80;71.70
19864;DHT22;10094;48.820;9.226;2022-07-23T11:25:55;32.20;72.00
19864;DHT22;10094;48.820;9.226;2022-07-23T11:32:39;31.10;72.70
19864;DHT22;10094;48.820;9.226;2022-07-23T11:39:25;30.70;73.10
19864;DHT22;10094;48.820;9.226;2022-07-23T11:46:09;30.40;72.20
19864;DHT22;10094;48.820;9.226;2022-07-23T11:52:53;31.10;71.50
19864;DHT22;10094;48.820;9.226;2022-07-23T11:59:36;30.80;72.90
19864;DHT22;10094;48.820;9.226;2022-07-23T12:06:20;31.70;72.80
19864;DHT22;10094;48.820;9.226;2022-07-23T12:13:09;30.80;73.30
19864;DHT22;10094;48.820;9.226;2022-07-23T12:19:52;31.00;74.10
19864;DHT22;10094;48.820;9.226;2022-07-23T12:26:36;30.60;73.70
19864;DHT22;10094;48.820;9.226;2022-07-23T12:33:30;29.90;76.00
19864;DHT22;10094;48.820;9.226;2022-07-23T12:40:28;30.70;74.00
19864;DHT22;10094;48.820;9.226;2022-07-23T12:47:11;31.10;74.20
19864;DHT22;10094;48.820;9.226;2022-07-23T12:53:56;30.70;73.20
19864;DHT22;10094;48.820;9.226;2022-07-23T13:07:57;30.70;73.30
19864;DHT22;10094;48.820;9.226;2022-07-23T13:14:39;30.80;73.80
19864;DHT22;10094;48.820;9.226;2022-07-23T13:21:24;30.70;74.70
19864;DHT22;10094;48.820;9.226;2022-07-23T13:28:08;30.60;77.10
19864;DHT22;10094;48.820;9.226;2022-07-23T13:34:50;31.00;75.80
19864;DHT22;10094;48.820;9.226;2022-07-23T13:41:33;30.60;75.00
19864;DHT22;10094;48.820;9.226;2022-07-23T13:48:18;30.20;75.00
19864;DHT22;10094;48.820;9.226;2022-07-23T13:55:03;30.10;76.60
19864;DHT22;10094;48.820;9.226;2022-07-23T14:01:46;30.30;76.50
19864;DHT22;10094;48.820;9.226;2022-07-23T14:08:49;30.50;76.10
19864;DHT22;10094;48.820;9.226;2022-07-23T14:15:33;31.00;75.60
19864;DHT22;10094;48.820;9.226;2022-07-23T14:22:16;30.50;75.70
19864;DHT22;10094;48.820;9.226;2022-07-23T14:29:02;30.50;74.60
19864;DHT22;10094;48.820;9.226;2022-07-23T14:35:46;31.30;74.30
19864;DHT22;10094;48.820;9.226;2022-07-23T14:42:28;31.10;74.20
19864;DHT22;10094;48.820;9.226;2022-07-23T14:49:11;30.20;75.60
19864;DHT22;10094;48.820;9.226;2022-07-23T14:55:53;31.00;74.00
19864;DHT22;10094;48.820;9.226;2022-07-23T15:02:37;30.80;74.00
19864;DHT22;10094;48.820;9.226;2022-07-23T15:09:20;30.70;74.00
19864;DHT22;10094;48.820;9.226;2022-07-23T15:16:03;30.40;74.10
19864;DHT22;10094;48.820;9.226;2022-07-23T15:22:48;30.50;73.70
19864;DHT22;10094;48.820;9.226;2022-07-23T15:29:30;30.80;73.10
19864;DHT22;10094;48.820;9.226;2022-07-23T15:36:13;30.40;73.20
19864;DHT22;10094;48.820;9.226;2022-07-23T15:42:57;30.20;73.70
19864;DHT22;10094;48.820;9.226;2022-07-23T15:49:40;30.70;73.50
19864;DHT22;10094;48.820;9.226;2022-07-23T15:56:22;30.50;73.30
19864;DHT22;10094;48.820;9.226;2022-07-23T16:03:05;30.80;73.00
19864;DHT22;10094;48.820;9.226;2022-07-23T16:09:49;30.70;72.70
19864;DHT22;10094;48.820;9.226;2022-07-23T16:16:31;30.70;73.60
19864;DHT22;10094;48.820;9.226;2022-07-23T16:23:14;30.80;72.50
19864;DHT22;10094;48.820;9.226;2022-07-23T16:29:56;30.70;73.00
19864;DHT22;10094;48.820;9.226;2022-07-23T16:36:39;30.60;73.70
19864;DHT22;10094;48.820;9.226;2022-07-23T16:43:22;30.00;74.70
19864;DHT22;10094;48.820;9.226;2022-07-23T16:50:05;30.00;75.90
19864;DHT22;10094;48.820;9.226;2022-07-23T16:56:49;29.70;77.50
19864;DHT22;10094;48.820;9.226;2022-07-23T17:03:32;29.50;77.90
19864;DHT22;10094;48.820;9.226;2022-07-23T17:10:14;29.40;78.20
19864;DHT22;10094;48.820;9.226;2022-07-23T17:16:57;29.20;78.50
19864;DHT22;10094;48.820;9.226;2022-07-23T17:23:40;28.90;78.90
19864;DHT22;10094;48.820;9.226;2022-07-23T17:30:23;28.60;79.80
19864;DHT22;10094;48.820;9.226;2022-07-23T17:37:05;28.50;80.10
19864;DHT22;10094;48.820;9.226;2022-07-23T17:43:51;28.30;81.00
19864;DHT22;10094;48.820;9.226;2022-07-23T17:50:33;28.10;81.80
19864;DHT22;10094;48.820;9.226;2022-07-23T17:57:16;28.20;82.10
19864;DHT22;10094;48.820;9.226;2022-07-23T18:03:58;28.20;82.60
19864;DHT22;10094;48.820;9.226;2022-07-23T18:10:41;28.20;82.80
19864;DHT22;10094;48.820;9.226;2022-07-23T18:17:24;28.00;83.70
19864;DHT22;10094;48.820;9.226;2022-07-23T18:24:07;27.90;84.80
19864;DHT22;10094;48.820;9.226;2022-07-23T18:30:50;27.60;84.70
19864;DHT22;10094;48.820;9.226;2022-07-23T18:37:33;27.60;85.40
19864;DHT22;10094;48.820;9.226;2022-07-23T18:44:19;27.60;86.70
19864;DHT22;10094;48.820;9.226;2022-07-23T18:51:01;27.60;87.00
19864;DHT22;10094;48.820;9.226;2022-07-23T18:57:45;27.80;87.00
19864;DHT22;10094;48.820;9.226;2022-07-23T19:04:28;27.60;87.60
19864;DHT22;10094;48.820;9.226;2022-07-23T19:11:10;27.60;88.10
19864;DHT22;10094;48.820;9.226;2022-07-23T19:17:52;27.50;88.10
19864;DHT22;10094;48.820;9.226;2022-07-23T19:24:35;27.30;89.00
19864;DHT22;10094;48.820;9.226;2022-07-23T19:31:20;27.20;89.30
19864;DHT22;10094;48.820;9.226;2022-07-23T19:38:03;27.00;89.80
19864;DHT22;10094;48.820;9.226;2022-07-23T19:44:45;26.90;90.10
19864;DHT22;10094;48.820;9.226;2022-07-23T19:51:28;26.70;90.30
19864;DHT22;10094;48.820;9.226;2022-07-23T19:58:10;26.60;90.70
19864;DHT22;10094;48.820;9.226;2022-07-23T20:04:53;26.50;90.80
19864;DHT22;10094;48.820;9.226;2022-07-23T20:11:36;26.50;91.00
19864;DHT22;10094;48.820;9.226;2022-07-23T20:18:18;26.40;91.10
19864;DHT22;10094;48.820;9.226;2022-07-23T20:25:01;26.50;92.10
19864;DHT22;10094;48.820;9.226;2022-07-23T20:31:45;26.40;92.30
19864;DHT22;10094;48.820;9.226;2022-07-23T20:38:46;26.30;92.30
19864;DHT22;10094;48.820;9.226;2022-07-23T20:45:29;26.30;92.50
19864;DHT22;10094;48.820;9.226;2022-07-23T20:52:11;26.30;92.50
19864;DHT22;10094;48.820;9.226;2022-07-23T20:58:54;26.20;92.70
19864;DHT22;10094;48.820;9.226;2022-07-23T21:05:37;26.10;93.20
19864;DHT22;10094;48.820;9.226;2022-07-23T21:12:20;26.00;93.50
19864;DHT22;10094;48.820;9.226;2022-07-23T21:19:03;26.00;94.20
19864;DHT22;10094;48.820;9.226;2022-07-23T21:25:46;25.90;94.10
19864;DHT22;10094;48.820;9.226;2022-07-23T21:32:51;25.80;94.00
19864;DHT22;10094;48.820;9.226;2022-07-23T21:39:34;25.70;94.70
19864;DHT22;10094;48.820;9.226;2022-07-23T21:46:16;25.50;94.80
19864;DHT22;10094;48.820;9.226;2022-07-23T21:52:58;25.40;95.20
19864;DHT22;10094;48.820;9.226;2022-07-23T21:59:41;25.20;95.50
19864;DHT22;10094;48.820;9.226;2022-07-23T22:06:27;25.10;96.50
19864;DHT22;10094;48.820;9.226;2022-07-23T22:13:09;24.80;97.10
19864;DHT22;10094;48.820;9.226;2022-07-23T22:19:54;24.70;97.10
19864;DHT22;10094;48.820;9.226;2022-07-23T22:26:37;24.60;97.70
19864;DHT22;10094;48.820;9.226;2022-07-23T22:33:20;24.50;97.20
19864;DHT22;10094;48.820;9.226;2022-07-23T22:40:04;24.40;97.80
19864;DHT22;10094;48.820;9.226;2022-07-23T22:46:47;24.30;98.40
19864;DHT22;10094;48.820;9.226;2022-07-23T22:53:29;24.20;98.80
19864;DHT22;10094;48.820;9.226;2022-07-23T23:00:12;24.10;99.30
19864;DHT22;10094;48.820;9.226;2022-07-23T23:07:50;24.00;99.70
19864;DHT22;10094;48.820;9.226;2022-07-23T23:14:33;23.20;99.80
19864;DHT22;10094;48.820;9.226;2022-07-23T23:21:16;23.30;99.80
19864;DHT22;10094;48.820;9.226;2022-07-23T23:27:58;23.30;99.90
19864;DHT22;10094;48.820;9.226;2022-07-23T23:34:41;23.20;99.90
19864;DHT22;10094;48.820;9.226;2022-07-23T23:41:23;23.10;99.90
19864;DHT22;10094;48.820;9.226;2022-07-23T23:48:08;23.10;99.90
19864;DHT22;10094;48.820;9.226;2022-07-23T23:54:51;23.00;99.90
